Aeroporto :
LOGIN :

Iscrizione | Disclaimer

   EN    FR    IT 

 










Sommario :    VFR   VFR Marginale   IFR   IFR Intensivo   IFR Molto Intensivo
Visibilità : 
Base nubi : 
>= 8 km
>= 3000ft
5 / 8 km
1000 / 3000 ft
1500m / 5 km
500 / 1000 ft
800 / 1500m
200 / 500 ft
< 800m
< 200 ft
Simboli :   Temporali  Nebbia  Neve Forte  Precipitazioni Forti  Vento > 20 kt
SIGMETs :   Varie  Temporali  Ghiacco  Turbolenza  Onda orograficha  Ceneri Vulcaniche






- Altitudine del aeroporto : 68 ft
- Codice IATA : AGH


ESTA - Ängelholm-Helsingborg

ULTIMO METAR :
  • 180720Z 27018KT 9999 SCT026 BKN039 06/03 Q1004

METARs OBSOLETI :
  • 180650Z 26017KT 9999 FEW025 BKN040 06/03 Q1004
  • 180620Z 27017KT 9999 BKN044 06/03 Q1004
  • 180550Z 26018KT 9999 OVC040 07/03 Q1003
  • 180520Z 25016KT 9999 BKN040 07/03 Q1003
  • 180450Z AUTO 26018KT 9999 OVC043/// 07/04 Q1003

TAF TAF ESTA
Valido dal 18 a 06 ore il 18 a 15 ore UTC


180509Z 1806/1815 24015KT 9999 BKN020
TEMPO 1806/1810 -SHRA BKN020CB
TEMPO 1810/1813 25020G30KT 4000 SHRAGS BKN010 BKN020CB
TEMPO 1813/1815 26018G30KT SHRA SCT020CB



MetMap, La meteo Aeronautica in un colpo d'occhio ! - Copyright ORBIFLY Dicembre 2007 - Disclaimer

ORBIFLY MET'MAP TEAM :

Programmazione e sviluppo : Alexandra Zaïnal
Concezione : Baudouin d'Aumeries
Aiuto per la programmazione : Marc-Olivier Méhu
Supporto tecnico e logistico : Manuel Goepfert
Aiuto per la traduzione : Arnaldo La Scala

Contatto : metmap@orbifly.com




FONTI E CREDITI :

   NOAA